Terminal Aerodrome Forecast
Issued by NWS

Home | Current Version | Previous Version | Text Only | Print | Product List | Glossary On
Versions: 1 2 3 4 5 6 7 8 9 10 11 12 13 14 15 16 17 18 19 20 21 22 23 24 25 26 27 28 29 30 31 32 33 34 35 36
815
FTAK31 PANC 242200 AAA
TAFAVD
TAF AMD
PAVD 242200Z 2422/2518 VRB04KT P6SM -RA SCT003 OVC045
     FM250000 26006KT 5SM -RA BKN015 OVC022
     FM250800 VRB02KT 3SM RA BR BKN008 OVC015
      AMD LTD TO CLD VIS AND WIND=

USA.gov is the U.S. government's official web portal to all federal, state and local government web resources and services.